sensor_id;sensor_type;location;lat;lon;timestamp;P1;durP1;ratioP1;P2;durP2;ratioP2
8610;SDS011;4343;53.648;10.098;2024-01-06T00:00:56;4.90;;;4.50;;
8610;SDS011;4343;53.648;10.098;2024-01-06T00:03:22;4.53;;;4.23;;
8610;SDS011;4343;53.648;10.098;2024-01-06T00:05:47;4.80;;;4.40;;
8610;SDS011;4343;53.648;10.098;2024-01-06T00:08:13;4.77;;;4.47;;
8610;SDS011;4343;53.648;10.098;2024-01-06T00:10:38;4.13;;;3.83;;
8610;SDS011;4343;53.648;10.098;2024-01-06T00:13:04;4.40;;;4.10;;
8610;SDS011;4343;53.648;10.098;2024-01-06T00:15:29;5.17;;;4.77;;
8610;SDS011;4343;53.648;10.098;2024-01-06T00:17:55;4.80;;;4.50;;
8610;SDS011;4343;53.648;10.098;2024-01-06T00:20:20;4.50;;;4.30;;
8610;SDS011;4343;53.648;10.098;2024-01-06T00:22:46;4.37;;;4.07;;
8610;SDS011;4343;53.648;10.098;2024-01-06T00:25:11;4.57;;;4.27;;
8610;SDS011;4343;53.648;10.098;2024-01-06T00:27:37;4.27;;;3.97;;
8610;SDS011;4343;53.648;10.098;2024-01-06T00:30:02;5.10;;;4.70;;
8610;SDS011;4343;53.648;10.098;2024-01-06T00:32:28;4.97;;;4.57;;
8610;SDS011;4343;53.648;10.098;2024-01-06T00:34:54;5.00;;;4.60;;
8610;SDS011;4343;53.648;10.098;2024-01-06T00:37:19;5.00;;;4.60;;
8610;SDS011;4343;53.648;10.098;2024-01-06T00:39:45;4.63;;;4.23;;
8610;SDS011;4343;53.648;10.098;2024-01-06T00:42:10;4.47;;;4.17;;
8610;SDS011;4343;53.648;10.098;2024-01-06T00:44:36;4.90;;;4.60;;
8610;SDS011;4343;53.648;10.098;2024-01-06T00:47:02;4.37;;;4.13;;
8610;SDS011;4343;53.648;10.098;2024-01-06T00:49:28;4.57;;;4.27;;
8610;SDS011;4343;53.648;10.098;2024-01-06T00:51:53;5.33;;;4.93;;
8610;SDS011;4343;53.648;10.098;2024-01-06T00:54:19;4.83;;;4.53;;
8610;SDS011;4343;53.648;10.098;2024-01-06T00:56:44;4.50;;;4.20;;
8610;SDS011;4343;53.648;10.098;2024-01-06T00:59:10;5.00;;;4.60;;
8610;SDS011;4343;53.648;10.098;2024-01-06T01:01:35;4.53;;;4.13;;
8610;SDS011;4343;53.648;10.098;2024-01-06T01:04:01;4.67;;;4.37;;
8610;SDS011;4343;53.648;10.098;2024-01-06T01:06:26;5.20;;;4.80;;
8610;SDS011;4343;53.648;10.098;2024-01-06T01:08:52;4.90;;;4.53;;
8610;SDS011;4343;53.648;10.098;2024-01-06T01:11:18;5.20;;;4.83;;
8610;SDS011;4343;53.648;10.098;2024-01-06T01:13:44;4.87;;;4.57;;
8610;SDS011;4343;53.648;10.098;2024-01-06T01:16:09;5.17;;;4.77;;
8610;SDS011;4343;53.648;10.098;2024-01-06T01:18:35;5.83;;;5.33;;
8610;SDS011;4343;53.648;10.098;2024-01-06T01:21:00;4.83;;;4.43;;
8610;SDS011;4343;53.648;10.098;2024-01-06T01:23:26;5.47;;;5.07;;
8610;SDS011;4343;53.648;10.098;2024-01-06T01:25:51;5.17;;;4.77;;
8610;SDS011;4343;53.648;10.098;2024-01-06T01:28:17;5.40;;;4.97;;
8610;SDS011;4343;53.648;10.098;2024-01-06T01:30:42;4.93;;;4.60;;
8610;SDS011;4343;53.648;10.098;2024-01-06T01:33:08;5.30;;;4.90;;
8610;SDS011;4343;53.648;10.098;2024-01-06T01:35:33;5.90;;;5.40;;
8610;SDS011;4343;53.648;10.098;2024-01-06T01:37:59;4.90;;;4.50;;
8610;SDS011;4343;53.648;10.098;2024-01-06T01:40:24;5.03;;;4.63;;
8610;SDS011;4343;53.648;10.098;2024-01-06T01:42:50;4.90;;;4.60;;
8610;SDS011;4343;53.648;10.098;2024-01-06T01:45:16;4.40;;;4.10;;
8610;SDS011;4343;53.648;10.098;2024-01-06T01:47:42;4.90;;;4.60;;
8610;SDS011;4343;53.648;10.098;2024-01-06T01:50:07;5.77;;;5.27;;
8610;SDS011;4343;53.648;10.098;2024-01-06T01:52:35;5.70;;;5.20;;
8610;SDS011;4343;53.648;10.098;2024-01-06T01:55:01;5.70;;;5.20;;
8610;SDS011;4343;53.648;10.098;2024-01-06T01:57:27;5.63;;;5.23;;
8610;SDS011;4343;53.648;10.098;2024-01-06T01:59:53;5.53;;;5.13;;
8610;SDS011;4343;53.648;10.098;2024-01-06T02:02:20;5.83;;;5.33;;
8610;SDS011;4343;53.648;10.098;2024-01-06T02:04:46;5.00;;;4.70;;
8610;SDS011;4343;53.648;10.098;2024-01-06T02:07:12;5.20;;;4.80;;
8610;SDS011;4343;53.648;10.098;2024-01-06T02:09:37;5.40;;;5.00;;
8610;SDS011;4343;53.648;10.098;2024-01-06T02:12:03;5.57;;;5.17;;
8610;SDS011;4343;53.648;10.098;2024-01-06T02:14:29;6.07;;;5.60;;
8610;SDS011;4343;53.648;10.098;2024-01-06T02:16:54;5.70;;;5.20;;
8610;SDS011;4343;53.648;10.098;2024-01-06T02:19:20;5.80;;;5.40;;
8610;SDS011;4343;53.648;10.098;2024-01-06T02:21:50;6.17;;;5.60;;
8610;SDS011;4343;53.648;10.098;2024-01-06T02:24:17;6.10;;;5.60;;
8610;SDS011;4343;53.648;10.098;2024-01-06T02:26:43;5.97;;;5.50;;
8610;SDS011;4343;53.648;10.098;2024-01-06T02:29:08;5.67;;;5.20;;
8610;SDS011;4343;53.648;10.098;2024-01-06T02:31:34;5.90;;;5.40;;
8610;SDS011;4343;53.648;10.098;2024-01-06T02:33:59;6.07;;;5.57;;
8610;SDS011;4343;53.648;10.098;2024-01-06T02:36:25;6.57;;;6.07;;
8610;SDS011;4343;53.648;10.098;2024-01-06T02:38:50;7.10;;;6.50;;
8610;SDS011;4343;53.648;10.098;2024-01-06T02:41:16;6.33;;;5.73;;
8610;SDS011;4343;53.648;10.098;2024-01-06T02:43:41;6.67;;;6.07;;
8610;SDS011;4343;53.648;10.098;2024-01-06T02:46:07;7.07;;;6.47;;
8610;SDS011;4343;53.648;10.098;2024-01-06T02:48:32;7.27;;;6.57;;
8610;SDS011;4343;53.648;10.098;2024-01-06T02:50:58;6.80;;;6.30;;
8610;SDS011;4343;53.648;10.098;2024-01-06T02:53:23;6.73;;;6.13;;
8610;SDS011;4343;53.648;10.098;2024-01-06T02:55:49;7.33;;;6.63;;
8610;SDS011;4343;53.648;10.098;2024-01-06T02:58:14;7.40;;;6.70;;
8610;SDS011;4343;53.648;10.098;2024-01-06T03:00:40;6.80;;;6.30;;
8610;SDS011;4343;53.648;10.098;2024-01-06T03:03:05;6.80;;;6.20;;
8610;SDS011;4343;53.648;10.098;2024-01-06T03:05:31;7.47;;;6.77;;
8610;SDS011;4343;53.648;10.098;2024-01-06T03:07:56;6.90;;;6.30;;
8610;SDS011;4343;53.648;10.098;2024-01-06T03:10:22;7.13;;;6.53;;
8610;SDS011;4343;53.648;10.098;2024-01-06T03:12:47;6.60;;;6.00;;
8610;SDS011;4343;53.648;10.098;2024-01-06T03:15:13;6.67;;;6.13;;
8610;SDS011;4343;53.648;10.098;2024-01-06T03:17:39;7.40;;;6.70;;
8610;SDS011;4343;53.648;10.098;2024-01-06T03:20:04;7.17;;;6.57;;
8610;SDS011;4343;53.648;10.098;2024-01-06T03:22:30;7.27;;;6.67;;
8610;SDS011;4343;53.648;10.098;2024-01-06T03:24:56;6.70;;;6.10;;
8610;SDS011;4343;53.648;10.098;2024-01-06T03:27:21;7.90;;;7.10;;
8610;SDS011;4343;53.648;10.098;2024-01-06T03:29:47;7.03;;;6.33;;
8610;SDS011;4343;53.648;10.098;2024-01-06T03:32:12;7.73;;;7.07;;
8610;SDS011;4343;53.648;10.098;2024-01-06T03:34:38;7.70;;;7.00;;
8610;SDS011;4343;53.648;10.098;2024-01-06T03:37:05;7.33;;;6.73;;
8610;SDS011;4343;53.648;10.098;2024-01-06T03:39:30;7.17;;;6.53;;
8610;SDS011;4343;53.648;10.098;2024-01-06T03:41:56;6.80;;;6.30;;
8610;SDS011;4343;53.648;10.098;2024-01-06T03:44:21;6.67;;;6.17;;
8610;SDS011;4343;53.648;10.098;2024-01-06T03:46:47;6.80;;;6.20;;
8610;SDS011;4343;53.648;10.098;2024-01-06T03:49:12;6.97;;;6.37;;
8610;SDS011;4343;53.648;10.098;2024-01-06T03:51:38;7.97;;;7.20;;
8610;SDS011;4343;53.648;10.098;2024-01-06T03:54:04;7.77;;;6.37;;
8610;SDS011;4343;53.648;10.098;2024-01-06T03:56:29;6.77;;;6.27;;
8610;SDS011;4343;53.648;10.098;2024-01-06T03:58:55;6.37;;;5.87;;
8610;SDS011;4343;53.648;10.098;2024-01-06T04:01:20;6.83;;;6.23;;
8610;SDS011;4343;53.648;10.098;2024-01-06T04:03:46;7.30;;;6.60;;
8610;SDS011;4343;53.648;10.098;2024-01-06T04:06:11;7.03;;;6.53;;
8610;SDS011;4343;53.648;10.098;2024-01-06T04:08:39;7.60;;;6.90;;
8610;SDS011;4343;53.648;10.098;2024-01-06T04:11:05;6.73;;;6.13;;
8610;SDS011;4343;53.648;10.098;2024-01-06T04:13:31;7.40;;;6.77;;
8610;SDS011;4343;53.648;10.098;2024-01-06T04:15:56;6.87;;;6.27;;
8610;SDS011;4343;53.648;10.098;2024-01-06T04:18:22;7.13;;;6.53;;
8610;SDS011;4343;53.648;10.098;2024-01-06T04:20:47;6.50;;;5.90;;
8610;SDS011;4343;53.648;10.098;2024-01-06T04:23:13;6.73;;;6.13;;
8610;SDS011;4343;53.648;10.098;2024-01-06T04:25:38;7.17;;;6.57;;
8610;SDS011;4343;53.648;10.098;2024-01-06T04:28:04;7.20;;;6.60;;
8610;SDS011;4343;53.648;10.098;2024-01-06T04:30:30;7.00;;;6.40;;
8610;SDS011;4343;53.648;10.098;2024-01-06T04:32:55;6.67;;;6.17;;
8610;SDS011;4343;53.648;10.098;2024-01-06T04:35:22;7.57;;;6.87;;
8610;SDS011;4343;53.648;10.098;2024-01-06T04:37:49;7.13;;;6.47;;
8610;SDS011;4343;53.648;10.098;2024-01-06T04:40:14;8.33;;;7.23;;
8610;SDS011;4343;53.648;10.098;2024-01-06T04:42:40;7.83;;;6.80;;
8610;SDS011;4343;53.648;10.098;2024-01-06T04:45:05;8.23;;;7.27;;
8610;SDS011;4343;53.648;10.098;2024-01-06T04:47:32;7.07;;;6.47;;
8610;SDS011;4343;53.648;10.098;2024-01-06T04:49:57;7.30;;;6.60;;
8610;SDS011;4343;53.648;10.098;2024-01-06T04:52:23;7.20;;;6.43;;
8610;SDS011;4343;53.648;10.098;2024-01-06T04:54:48;7.23;;;6.73;;
8610;SDS011;4343;53.648;10.098;2024-01-06T04:57:14;7.37;;;6.77;;
8610;SDS011;4343;53.648;10.098;2024-01-06T04:59:40;7.10;;;6.50;;
8610;SDS011;4343;53.648;10.098;2024-01-06T05:02:06;7.30;;;6.67;;
8610;SDS011;4343;53.648;10.098;2024-01-06T05:04:32;7.30;;;6.60;;
8610;SDS011;4343;53.648;10.098;2024-01-06T05:06:58;7.23;;;6.53;;
8610;SDS011;4343;53.648;10.098;2024-01-06T05:09:23;7.10;;;6.47;;
8610;SDS011;4343;53.648;10.098;2024-01-06T05:11:50;7.33;;;6.73;;
8610;SDS011;4343;53.648;10.098;2024-01-06T05:14:15;7.40;;;6.70;;
8610;SDS011;4343;53.648;10.098;2024-01-06T05:16:40;8.33;;;7.53;;
8610;SDS011;4343;53.648;10.098;2024-01-06T05:19:07;7.97;;;7.17;;
8610;SDS011;4343;53.648;10.098;2024-01-06T05:21:32;8.40;;;7.57;;
8610;SDS011;4343;53.648;10.098;2024-01-06T05:23:59;8.17;;;7.37;;
8610;SDS011;4343;53.648;10.098;2024-01-06T05:26:24;7.93;;;7.23;;
8610;SDS011;4343;53.648;10.098;2024-01-06T05:28:50;7.57;;;6.97;;
8610;SDS011;4343;53.648;10.098;2024-01-06T05:31:16;7.23;;;6.37;;
8610;SDS011;4343;53.648;10.098;2024-01-06T05:33:42;8.20;;;7.50;;
8610;SDS011;4343;53.648;10.098;2024-01-06T05:36:07;7.73;;;7.03;;
8610;SDS011;4343;53.648;10.098;2024-01-06T05:38:33;8.00;;;7.20;;
8610;SDS011;4343;53.648;10.098;2024-01-06T05:40:58;8.60;;;7.80;;
8610;SDS011;4343;53.648;10.098;2024-01-06T05:43:24;7.67;;;6.97;;
8610;SDS011;4343;53.648;10.098;2024-01-06T05:45:50;8.63;;;7.80;;
8610;SDS011;4343;53.648;10.098;2024-01-06T05:48:15;8.63;;;7.83;;
8610;SDS011;4343;53.648;10.098;2024-01-06T05:50:41;8.13;;;7.43;;
8610;SDS011;4343;53.648;10.098;2024-01-06T05:53:07;8.13;;;7.33;;
8610;SDS011;4343;53.648;10.098;2024-01-06T05:55:33;7.97;;;7.17;;
8610;SDS011;4343;53.648;10.098;2024-01-06T05:57:58;7.67;;;7.00;;
8610;SDS011;4343;53.648;10.098;2024-01-06T06:00:24;9.20;;;8.30;;
8610;SDS011;4343;53.648;10.098;2024-01-06T06:02:50;8.53;;;7.73;;
8610;SDS011;4343;53.648;10.098;2024-01-06T06:05:15;8.90;;;8.10;;
8610;SDS011;4343;53.648;10.098;2024-01-06T06:07:41;8.67;;;7.87;;
8610;SDS011;4343;53.648;10.098;2024-01-06T06:10:07;8.17;;;7.37;;
8610;SDS011;4343;53.648;10.098;2024-01-06T06:12:34;8.60;;;7.80;;
8610;SDS011;4343;53.648;10.098;2024-01-06T06:15:01;8.97;;;8.17;;
8610;SDS011;4343;53.648;10.098;2024-01-06T06:17:28;8.17;;;7.40;;
8610;SDS011;4343;53.648;10.098;2024-01-06T06:19:54;8.83;;;7.73;;
8610;SDS011;4343;53.648;10.098;2024-01-06T06:22:19;8.93;;;8.10;;
8610;SDS011;4343;53.648;10.098;2024-01-06T06:24:46;8.90;;;7.67;;
8610;SDS011;4343;53.648;10.098;2024-01-06T06:27:12;8.83;;;8.03;;
8610;SDS011;4343;53.648;10.098;2024-01-06T06:29:37;9.93;;;8.93;;
8610;SDS011;4343;53.648;10.098;2024-01-06T06:32:03;9.17;;;8.37;;
8610;SDS011;4343;53.648;10.098;2024-01-06T06:34:28;9.07;;;8.27;;
8610;SDS011;4343;53.648;10.098;2024-01-06T06:36:54;8.87;;;8.10;;
8610;SDS011;4343;53.648;10.098;2024-01-06T06:39:19;8.57;;;7.73;;
8610;SDS011;4343;53.648;10.098;2024-01-06T06:41:45;8.50;;;7.67;;
8610;SDS011;4343;53.648;10.098;2024-01-06T06:44:10;8.50;;;7.80;;
8610;SDS011;4343;53.648;10.098;2024-01-06T06:46:36;8.13;;;7.33;;
8610;SDS011;4343;53.648;10.098;2024-01-06T06:49:01;9.63;;;8.73;;
8610;SDS011;4343;53.648;10.098;2024-01-06T06:51:27;9.17;;;8.27;;
8610;SDS011;4343;53.648;10.098;2024-01-06T06:53:55;9.90;;;8.07;;
8610;SDS011;4343;53.648;10.098;2024-01-06T06:56:21;9.50;;;8.20;;
8610;SDS011;4343;53.648;10.098;2024-01-06T06:58:47;8.87;;;7.97;;
8610;SDS011;4343;53.648;10.098;2024-01-06T07:01:15;9.00;;;8.10;;
8610;SDS011;4343;53.648;10.098;2024-01-06T07:03:41;10.37;;;8.77;;
8610;SDS011;4343;53.648;10.098;2024-01-06T07:06:07;9.30;;;8.27;;
8610;SDS011;4343;53.648;10.098;2024-01-06T07:08:33;8.73;;;7.90;;
8610;SDS011;4343;53.648;10.098;2024-01-06T07:10:58;7.87;;;7.17;;
8610;SDS011;4343;53.648;10.098;2024-01-06T07:13:24;8.77;;;7.83;;
8610;SDS011;4343;53.648;10.098;2024-01-06T07:15:51;8.90;;;8.00;;
8610;SDS011;4343;53.648;10.098;2024-01-06T07:18:16;9.83;;;7.77;;
8610;SDS011;4343;53.648;10.098;2024-01-06T07:20:44;9.23;;;8.33;;
8610;SDS011;4343;53.648;10.098;2024-01-06T07:23:09;10.33;;;8.50;;
8610;SDS011;4343;53.648;10.098;2024-01-06T07:25:35;9.40;;;8.50;;
8610;SDS011;4343;53.648;10.098;2024-01-06T07:28:00;9.17;;;8.23;;
8610;SDS011;4343;53.648;10.098;2024-01-06T07:30:27;9.13;;;8.27;;
8610;SDS011;4343;53.648;10.098;2024-01-06T07:32:52;8.70;;;7.80;;
8610;SDS011;4343;53.648;10.098;2024-01-06T07:35:18;9.10;;;8.20;;
8610;SDS011;4343;53.648;10.098;2024-01-06T07:37:43;8.27;;;7.47;;
8610;SDS011;4343;53.648;10.098;2024-01-06T07:40:09;8.47;;;7.67;;
8610;SDS011;4343;53.648;10.098;2024-01-06T07:42:35;8.50;;;7.70;;
8610;SDS011;4343;53.648;10.098;2024-01-06T07:45:00;8.50;;;7.63;;
8610;SDS011;4343;53.648;10.098;2024-01-06T07:47:27;7.90;;;7.10;;
8610;SDS011;4343;53.648;10.098;2024-01-06T07:49:52;9.27;;;8.30;;
8610;SDS011;4343;53.648;10.098;2024-01-06T07:52:18;8.90;;;8.00;;
8610;SDS011;4343;53.648;10.098;2024-01-06T07:54:43;8.87;;;7.93;;
8610;SDS011;4343;53.648;10.098;2024-01-06T07:57:09;8.83;;;7.93;;
8610;SDS011;4343;53.648;10.098;2024-01-06T07:59:36;10.77;;;8.03;;
8610;SDS011;4343;53.648;10.098;2024-01-06T08:02:01;8.67;;;7.47;;
8610;SDS011;4343;53.648;10.098;2024-01-06T08:04:27;8.73;;;7.87;;
8610;SDS011;4343;53.648;10.098;2024-01-06T08:06:52;9.27;;;8.37;;
8610;SDS011;4343;53.648;10.098;2024-01-06T08:09:18;8.97;;;8.03;;
8610;SDS011;4343;53.648;10.098;2024-01-06T08:11:43;7.77;;;7.07;;
8610;SDS011;4343;53.648;10.098;2024-01-06T08:14:12;8.70;;;7.80;;
8610;SDS011;4343;53.648;10.098;2024-01-06T08:16:38;9.17;;;7.87;;
8610;SDS011;4343;53.648;10.098;2024-01-06T08:19:03;8.70;;;7.90;;
8610;SDS011;4343;53.648;10.098;2024-01-06T08:21:29;8.30;;;7.50;;
8610;SDS011;4343;53.648;10.098;2024-01-06T08:23:54;9.03;;;8.13;;
8610;SDS011;4343;53.648;10.098;2024-01-06T08:26:20;10.23;;;7.57;;
8610;SDS011;4343;53.648;10.098;2024-01-06T08:28:46;10.50;;;8.03;;
8610;SDS011;4343;53.648;10.098;2024-01-06T08:31:12;8.50;;;7.60;;
8610;SDS011;4343;53.648;10.098;2024-01-06T08:33:37;7.80;;;7.00;;
8610;SDS011;4343;53.648;10.098;2024-01-06T08:36:03;8.90;;;8.00;;
8610;SDS011;4343;53.648;10.098;2024-01-06T08:38:29;7.77;;;7.07;;
8610;SDS011;4343;53.648;10.098;2024-01-06T08:40:54;7.43;;;6.73;;
8610;SDS011;4343;53.648;10.098;2024-01-06T08:43:20;7.27;;;6.60;;
8610;SDS011;4343;53.648;10.098;2024-01-06T08:45:45;8.00;;;7.30;;
8610;SDS011;4343;53.648;10.098;2024-01-06T08:48:11;9.60;;;8.20;;
8610;SDS011;4343;53.648;10.098;2024-01-06T08:50:38;8.83;;;8.07;;
8610;SDS011;4343;53.648;10.098;2024-01-06T08:53:03;8.23;;;7.43;;
8610;SDS011;4343;53.648;10.098;2024-01-06T08:55:30;8.80;;;7.97;;
8610;SDS011;4343;53.648;10.098;2024-01-06T08:57:55;9.33;;;8.23;;
8610;SDS011;4343;53.648;10.098;2024-01-06T09:00:20;9.23;;;8.30;;
8610;SDS011;4343;53.648;10.098;2024-01-06T09:02:46;8.50;;;7.70;;
8610;SDS011;4343;53.648;10.098;2024-01-06T09:05:11;8.47;;;7.37;;
8610;SDS011;4343;53.648;10.098;2024-01-06T09:07:37;8.60;;;7.70;;
8610;SDS011;4343;53.648;10.098;2024-01-06T09:10:03;8.40;;;7.57;;
8610;SDS011;4343;53.648;10.098;2024-01-06T09:12:28;8.50;;;7.70;;
8610;SDS011;4343;53.648;10.098;2024-01-06T09:14:54;7.93;;;7.23;;
8610;SDS011;4343;53.648;10.098;2024-01-06T09:17:20;9.40;;;8.00;;
8610;SDS011;4343;53.648;10.098;2024-01-06T09:19:47;9.37;;;7.83;;
8610;SDS011;4343;53.648;10.098;2024-01-06T09:22:13;9.03;;;8.13;;
8610;SDS011;4343;53.648;10.098;2024-01-06T09:24:39;10.00;;;7.83;;
8610;SDS011;4343;53.648;10.098;2024-01-06T09:27:05;9.17;;;7.83;;
8610;SDS011;4343;53.648;10.098;2024-01-06T09:29:30;8.60;;;7.90;;
8610;SDS011;4343;53.648;10.098;2024-01-06T09:31:56;8.97;;;7.67;;
8610;SDS011;4343;53.648;10.098;2024-01-06T09:34:21;8.90;;;8.00;;
8610;SDS011;4343;53.648;10.098;2024-01-06T09:36:47;9.20;;;8.30;;
8610;SDS011;4343;53.648;10.098;2024-01-06T09:39:12;7.57;;;6.93;;
8610;SDS011;4343;53.648;10.098;2024-01-06T09:41:38;8.33;;;7.53;;
8610;SDS011;4343;53.648;10.098;2024-01-06T09:44:03;10.33;;;8.00;;
8610;SDS011;4343;53.648;10.098;2024-01-06T09:46:29;9.73;;;8.37;;
8610;SDS011;4343;53.648;10.098;2024-01-06T09:48:55;8.53;;;7.73;;
8610;SDS011;4343;53.648;10.098;2024-01-06T09:51:22;9.13;;;8.10;;
8610;SDS011;4343;53.648;10.098;2024-01-06T09:57:10;8.43;;;7.63;;
8610;SDS011;4343;53.648;10.098;2024-01-06T09:59:35;8.63;;;7.80;;
8610;SDS011;4343;53.648;10.098;2024-01-06T10:02:02;8.30;;;7.20;;
8610;SDS011;4343;53.648;10.098;2024-01-06T10:04:29;8.33;;;7.53;;
8610;SDS011;4343;53.648;10.098;2024-01-06T10:06:54;9.07;;;8.27;;
8610;SDS011;4343;53.648;10.098;2024-01-06T10:09:25;10.20;;;8.33;;
8610;SDS011;4343;53.648;10.098;2024-01-06T10:11:54;10.13;;;8.10;;
8610;SDS011;4343;53.648;10.098;2024-01-06T10:14:21;10.17;;;9.13;;
8610;SDS011;4343;53.648;10.098;2024-01-06T10:16:48;8.77;;;7.87;;
8610;SDS011;4343;53.648;10.098;2024-01-06T10:19:16;9.47;;;8.10;;
8610;SDS011;4343;53.648;10.098;2024-01-06T10:21:41;8.60;;;7.80;;
8610;SDS011;4343;53.648;10.098;2024-01-06T10:24:08;8.43;;;7.50;;
8610;SDS011;4343;53.648;10.098;2024-01-06T10:26:34;8.00;;;7.20;;
8610;SDS011;4343;53.648;10.098;2024-01-06T10:29:00;8.93;;;8.03;;
8610;SDS011;4343;53.648;10.098;2024-01-06T10:31:26;11.50;;;7.77;;
8610;SDS011;4343;53.648;10.098;2024-01-06T10:33:51;8.47;;;7.67;;
8610;SDS011;4343;53.648;10.098;2024-01-06T10:36:17;9.67;;;8.40;;
8610;SDS011;4343;53.648;10.098;2024-01-06T10:38:44;11.03;;;8.97;;
8610;SDS011;4343;53.648;10.098;2024-01-06T10:41:10;10.37;;;8.40;;
8610;SDS011;4343;53.648;10.098;2024-01-06T10:43:37;8.87;;;7.97;;
8610;SDS011;4343;53.648;10.098;2024-01-06T10:46:06;9.37;;;8.37;;
8610;SDS011;4343;53.648;10.098;2024-01-06T10:48:36;11.47;;;8.80;;
8610;SDS011;4343;53.648;10.098;2024-01-06T10:51:07;9.33;;;8.17;;
8610;SDS011;4343;53.648;10.098;2024-01-06T10:53:34;10.03;;;7.83;;
8610;SDS011;4343;53.648;10.098;2024-01-06T10:56:07;9.20;;;7.93;;
8610;SDS011;4343;53.648;10.098;2024-01-06T10:58:34;10.63;;;8.23;;
8610;SDS011;4343;53.648;10.098;2024-01-06T11:01:11;9.83;;;8.20;;
8610;SDS011;4343;53.648;10.098;2024-01-06T11:03:37;8.60;;;7.80;;
8610;SDS011;4343;53.648;10.098;2024-01-06T11:06:04;11.70;;;8.70;;
8610;SDS011;4343;53.648;10.098;2024-01-06T11:08:32;10.47;;;8.67;;
8610;SDS011;4343;53.648;10.098;2024-01-06T11:11:01;9.77;;;7.93;;
8610;SDS011;4343;53.648;10.098;2024-01-06T11:13:27;7.53;;;6.70;;
8610;SDS011;4343;53.648;10.098;2024-01-06T11:15:53;8.10;;;7.37;;
8610;SDS011;4343;53.648;10.098;2024-01-06T11:23:37;9.37;;;7.47;;
8610;SDS011;4343;53.648;10.098;2024-01-06T11:26:03;8.17;;;7.37;;
8610;SDS011;4343;53.648;10.098;2024-01-06T11:28:31;8.50;;;7.17;;
8610;SDS011;4343;53.648;10.098;2024-01-06T11:31:09;7.67;;;6.87;;
8610;SDS011;4343;53.648;10.098;2024-01-06T11:33:40;7.57;;;6.73;;
8610;SDS011;4343;53.648;10.098;2024-01-06T11:36:09;8.40;;;6.63;;
8610;SDS011;4343;53.648;10.098;2024-01-06T11:38:39;7.37;;;6.67;;
8610;SDS011;4343;53.648;10.098;2024-01-06T11:41:06;7.07;;;6.23;;
8610;SDS011;4343;53.648;10.098;2024-01-06T11:43:33;7.30;;;6.53;;
8610;SDS011;4343;53.648;10.098;2024-01-06T11:46:01;6.57;;;5.97;;
8610;SDS011;4343;53.648;10.098;2024-01-06T11:48:29;7.03;;;6.37;;
8610;SDS011;4343;53.648;10.098;2024-01-06T11:50:54;5.83;;;5.33;;
8610;SDS011;4343;53.648;10.098;2024-01-06T11:53:21;6.57;;;5.97;;
8610;SDS011;4343;53.648;10.098;2024-01-06T11:55:48;6.40;;;5.80;;
8610;SDS011;4343;53.648;10.098;2024-01-06T11:58:16;5.60;;;5.10;;
8610;SDS011;4343;53.648;10.098;2024-01-06T12:00:41;6.20;;;5.60;;
8610;SDS011;4343;53.648;10.098;2024-01-06T12:03:07;5.93;;;5.33;;
8610;SDS011;4343;53.648;10.098;2024-01-06T12:05:33;6.17;;;5.57;;
8610;SDS011;4343;53.648;10.098;2024-01-06T12:07:59;5.33;;;4.70;;
8610;SDS011;4343;53.648;10.098;2024-01-06T12:10:27;5.73;;;5.13;;
8610;SDS011;4343;53.648;10.098;2024-01-06T12:13:00;5.40;;;4.83;;
8610;SDS011;4343;53.648;10.098;2024-01-06T12:15:27;5.87;;;5.27;;
8610;SDS011;4343;53.648;10.098;2024-01-06T12:17:54;5.70;;;5.17;;
8610;SDS011;4343;53.648;10.098;2024-01-06T12:20:21;6.20;;;5.33;;
8610;SDS011;4343;53.648;10.098;2024-01-06T12:22:48;6.87;;;5.50;;
8610;SDS011;4343;53.648;10.098;2024-01-06T12:25:16;5.10;;;4.63;;
8610;SDS011;4343;53.648;10.098;2024-01-06T12:27:42;5.20;;;4.80;;
8610;SDS011;4343;53.648;10.098;2024-01-06T12:30:12;6.43;;;4.73;;
8610;SDS011;4343;53.648;10.098;2024-01-06T12:32:40;6.07;;;5.47;;
8610;SDS011;4343;53.648;10.098;2024-01-06T12:35:07;5.60;;;5.10;;
8610;SDS011;4343;53.648;10.098;2024-01-06T12:37:35;6.93;;;6.23;;
8610;SDS011;4343;53.648;10.098;2024-01-06T12:40:01;6.40;;;5.80;;
8610;SDS011;4343;53.648;10.098;2024-01-06T12:42:26;6.93;;;5.40;;
8610;SDS011;4343;53.648;10.098;2024-01-06T12:44:52;6.10;;;5.50;;
8610;SDS011;4343;53.648;10.098;2024-01-06T12:47:18;6.33;;;5.80;;
8610;SDS011;4343;53.648;10.098;2024-01-06T12:49:44;6.70;;;5.87;;
8610;SDS011;4343;53.648;10.098;2024-01-06T12:52:09;6.67;;;5.40;;
8610;SDS011;4343;53.648;10.098;2024-01-06T12:54:35;6.20;;;5.60;;
8610;SDS011;4343;53.648;10.098;2024-01-06T12:57:00;5.67;;;5.17;;
8610;SDS011;4343;53.648;10.098;2024-01-06T12:59:26;5.43;;;5.00;;
8610;SDS011;4343;53.648;10.098;2024-01-06T13:01:52;6.33;;;5.47;;
8610;SDS011;4343;53.648;10.098;2024-01-06T13:04:17;6.20;;;5.60;;
8610;SDS011;4343;53.648;10.098;2024-01-06T13:06:43;6.10;;;5.50;;
8610;SDS011;4343;53.648;10.098;2024-01-06T13:09:09;5.63;;;5.13;;
8610;SDS011;4343;53.648;10.098;2024-01-06T13:11:41;6.77;;;5.20;;
8610;SDS011;4343;53.648;10.098;2024-01-06T13:14:06;5.90;;;5.40;;
8610;SDS011;4343;53.648;10.098;2024-01-06T13:16:32;5.97;;;5.50;;
8610;SDS011;4343;53.648;10.098;2024-01-06T13:18:58;4.70;;;4.30;;
8610;SDS011;4343;53.648;10.098;2024-01-06T13:21:24;20.53;;;5.20;;
8610;SDS011;4343;53.648;10.098;2024-01-06T13:23:49;5.13;;;4.70;;
8610;SDS011;4343;53.648;10.098;2024-01-06T13:26:15;5.23;;;4.83;;
8610;SDS011;4343;53.648;10.098;2024-01-06T13:28:41;5.07;;;4.67;;
8610;SDS011;4343;53.648;10.098;2024-01-06T13:31:06;5.20;;;4.80;;
8610;SDS011;4343;53.648;10.098;2024-01-06T13:33:32;4.73;;;4.43;;
8610;SDS011;4343;53.648;10.098;2024-01-06T13:35:57;4.40;;;4.10;;
8610;SDS011;4343;53.648;10.098;2024-01-06T13:38:23;5.23;;;4.77;;
8610;SDS011;4343;53.648;10.098;2024-01-06T13:40:50;4.80;;;4.40;;
8610;SDS011;4343;53.648;10.098;2024-01-06T13:43:17;4.80;;;4.40;;
8610;SDS011;4343;53.648;10.098;2024-01-06T13:45:43;4.87;;;4.40;;
8610;SDS011;4343;53.648;10.098;2024-01-06T13:48:12;5.57;;;4.50;;
8610;SDS011;4343;53.648;10.098;2024-01-06T13:50:38;4.50;;;4.20;;
8610;SDS011;4343;53.648;10.098;2024-01-06T13:53:04;5.10;;;4.70;;
8610;SDS011;4343;53.648;10.098;2024-01-06T13:55:31;5.17;;;4.67;;
8610;SDS011;4343;53.648;10.098;2024-01-06T13:57:58;4.73;;;4.33;;
8610;SDS011;4343;53.648;10.098;2024-01-06T14:00:23;4.97;;;4.57;;
8610;SDS011;4343;53.648;10.098;2024-01-06T14:02:50;4.83;;;4.43;;
8610;SDS011;4343;53.648;10.098;2024-01-06T14:05:16;4.87;;;4.53;;
8610;SDS011;4343;53.648;10.098;2024-01-06T14:07:44;6.77;;;4.93;;
8610;SDS011;4343;53.648;10.098;2024-01-06T14:10:13;5.00;;;4.70;;
8610;SDS011;4343;53.648;10.098;2024-01-06T14:12:40;6.47;;;5.60;;
8610;SDS011;4343;53.648;10.098;2024-01-06T14:15:06;4.63;;;4.20;;
8610;SDS011;4343;53.648;10.098;2024-01-06T14:17:32;4.90;;;4.50;;
8610;SDS011;4343;53.648;10.098;2024-01-06T14:19:58;5.60;;;5.10;;
8610;SDS011;4343;53.648;10.098;2024-01-06T14:22:23;6.20;;;5.60;;
8610;SDS011;4343;53.648;10.098;2024-01-06T14:24:49;5.63;;;5.13;;
8610;SDS011;4343;53.648;10.098;2024-01-06T14:27:15;5.30;;;4.80;;
8610;SDS011;4343;53.648;10.098;2024-01-06T14:29:41;5.13;;;4.73;;
8610;SDS011;4343;53.648;10.098;2024-01-06T14:32:06;5.97;;;5.57;;
8610;SDS011;4343;53.648;10.098;2024-01-06T14:34:32;5.40;;;5.00;;
8610;SDS011;4343;53.648;10.098;2024-01-06T14:36:58;4.90;;;4.53;;
8610;SDS011;4343;53.648;10.098;2024-01-06T14:39:24;4.90;;;4.50;;
8610;SDS011;4343;53.648;10.098;2024-01-06T14:41:49;5.47;;;5.03;;
8610;SDS011;4343;53.648;10.098;2024-01-06T14:44:15;5.30;;;4.90;;
8610;SDS011;4343;53.648;10.098;2024-01-06T14:46:41;5.40;;;5.00;;
8610;SDS011;4343;53.648;10.098;2024-01-06T14:49:06;5.97;;;5.43;;
8610;SDS011;4343;53.648;10.098;2024-01-06T14:51:33;5.47;;;4.97;;
8610;SDS011;4343;53.648;10.098;2024-01-06T14:53:58;5.80;;;5.40;;
8610;SDS011;4343;53.648;10.098;2024-01-06T14:56:24;6.27;;;5.77;;
8610;SDS011;4343;53.648;10.098;2024-01-06T14:58:51;5.53;;;5.13;;
8610;SDS011;4343;53.648;10.098;2024-01-06T15:01:16;5.73;;;5.20;;